Main page


Airports :

Islamabad, Pakistan

Benazir Bhutto International Airport

latitude: 33-37N, longitude: 073-06E, elevation: 507 m

Current weather observation

The report was made 57 minutes ago, at 22:00 UTC
Wind 4 kt from the Northeast
Temperature 17°C
Humidity 77%
Pressure 1016 hPa
Visibility: 4000 m

METAR: OPRN 262200Z 05004KT 4000 HZ NSC 17/13 Q1016.8/30.03

Time: 03:57 (22:57 UTC)


The report was made 13 hours and 27 minutes ago, at 09:30 UTC
Forecast valid from 26 at 12 UTC to 27 at 18 UTC
Wind 10 kt from the Southwest
Visibility: 4000 m
from 27 at 01 UTC to 27 at 04 UTC
Wind 10 kt from the Southeast
Visibility: 3000 m

TAF: OPRN 260930Z 2612/2718 23010KT 4000 NSC TEMPO 2701/2704 13010KT 3000 BR NSC

Weather observations and forecasts of more than 4000 airports (METAR and TAF reports).

The available stations are represented by yellow and red dots on the map.

Hover mouse over dot to see the name of the station.

Then click to see weather observations and forecasts.

To change the map : click on the green buttons with a black cross to zoom in, on the green button with a dash to zoom out, or on the green arrows for adjacent maps.